createdAt,value
2019-05-16T00:00:59.591Z,1.60
2019-05-16T00:03:29.741Z,0.60
2019-05-16T00:06:00.762Z,0.70
2019-05-16T00:08:30.769Z,1.07
2019-05-16T00:11:00.750Z,1.13
2019-05-16T00:13:30.901Z,2.20
2019-05-16T00:16:00.919Z,0.93
2019-05-16T00:18:31.137Z,0.70
2019-05-16T00:21:01.153Z,0.70
2019-05-16T00:23:32.801Z,0.70
2019-05-16T00:26:02.783Z,0.60
2019-05-16T00:28:32.859Z,0.60
2019-05-16T00:31:02.849Z,1.07
2019-05-16T00:33:32.855Z,0.73
2019-05-16T00:36:05.908Z,1.53
2019-05-16T00:38:34.611Z,1.47
2019-05-16T00:41:08.340Z,0.70
2019-05-16T00:43:38.011Z,0.97
2019-05-16T00:46:10.114Z,0.53
2019-05-16T00:48:39.911Z,3.13
2019-05-16T00:51:10.351Z,1.30
2019-05-16T00:53:40.419Z,0.70
2019-05-16T00:56:10.941Z,1.80
2019-05-16T00:58:41.770Z,2.13
2019-05-16T01:01:12.145Z,0.60
2019-05-16T01:03:43.678Z,1.37
2019-05-16T01:06:18.610Z,0.97
2019-05-16T01:08:48.739Z,1.10
2019-05-16T01:11:18.935Z,1.90
2019-05-16T01:13:50.603Z,3.60
2019-05-16T01:16:20.606Z,2.87
2019-05-16T01:18:50.680Z,0.83
2019-05-16T01:21:20.688Z,0.77
2019-05-16T01:23:50.674Z,1.03
2019-05-16T01:26:21.325Z,2.60
2019-05-16T01:28:51.728Z,0.90
2019-05-16T01:31:22.171Z,0.60
2019-05-16T01:33:54.876Z,0.70
2019-05-16T01:36:34.271Z,1.33
2019-05-16T01:38:58.471Z,0.90
2019-05-16T01:41:28.562Z,1.00
2019-05-16T01:43:58.622Z,0.87
2019-05-16T01:46:28.638Z,0.70
2019-05-16T01:48:58.644Z,0.63
2019-05-16T01:51:28.898Z,0.80
2019-05-16T01:53:58.936Z,1.03
2019-05-16T01:56:29.058Z,0.87
2019-05-16T01:58:59.122Z,0.70
2019-05-16T02:01:29.181Z,0.87
2019-05-16T02:03:59.185Z,0.73
2019-05-16T02:06:29.262Z,1.07
2019-05-16T02:09:00.978Z,2.03
2019-05-16T02:11:32.256Z,0.90
2019-05-16T02:14:02.384Z,1.30
2019-05-16T02:16:32.458Z,2.23
2019-05-16T02:19:02.464Z,1.13
2019-05-16T02:21:32.455Z,0.70
2019-05-16T02:24:02.529Z,1.13
2019-05-16T02:26:32.518Z,0.77
2019-05-16T02:29:02.524Z,0.90
2019-05-16T02:31:32.539Z,0.90
2019-05-16T02:34:04.769Z,0.70
2019-05-16T02:36:34.547Z,1.20
2019-05-16T02:39:10.916Z,0.70
2019-05-16T02:41:45.609Z,0.60
2019-05-16T02:44:12.151Z,3.17
2019-05-16T02:46:42.432Z,0.70
2019-05-16T02:49:12.431Z,1.10
2019-05-16T02:51:44.017Z,3.40
2019-05-16T02:54:14.043Z,0.83
2019-05-16T02:56:44.026Z,0.87
2019-05-16T02:59:14.030Z,1.23
2019-05-16T03:01:44.022Z,0.63
2019-05-16T03:04:14.184Z,0.87
2019-05-16T03:06:44.818Z,1.47
2019-05-16T03:09:15.132Z,0.73
2019-05-16T03:11:46.146Z,0.90
2019-05-16T03:14:21.217Z,1.13
2019-05-16T03:16:50.779Z,0.77
2019-05-16T03:19:22.948Z,1.00
2019-05-16T03:21:54.881Z,0.90
2019-05-16T03:24:24.888Z,0.87
2019-05-16T03:26:54.894Z,0.90
2019-05-16T03:29:26.023Z,0.87
2019-05-16T03:31:56.090Z,0.70
2019-05-16T03:34:26.647Z,2.37
2019-05-16T03:36:56.774Z,0.90
2019-05-16T03:39:26.848Z,2.20
2019-05-16T03:41:56.849Z,0.70
2019-05-16T03:44:26.865Z,1.13
2019-05-16T03:46:56.858Z,0.80
2019-05-16T03:49:30.925Z,0.70
2019-05-16T03:52:01.418Z,3.90
2019-05-16T03:54:31.398Z,0.70
2019-05-16T03:57:01.780Z,0.80
2019-05-16T03:59:31.750Z,1.20
2019-05-16T04:02:04.143Z,0.70
2019-05-16T04:04:36.209Z,1.50
2019-05-16T04:07:10.803Z,0.90
2019-05-16T04:09:41.647Z,0.80
2019-05-16T04:12:11.650Z,0.90
2019-05-16T04:14:41.638Z,0.70
2019-05-16T04:17:11.644Z,1.23
2019-05-16T04:19:43.571Z,0.83
2019-05-16T04:22:15.400Z,0.70
2019-05-16T04:24:45.453Z,0.83
2019-05-16T04:27:15.478Z,1.47
2019-05-16T04:29:45.466Z,1.23
2019-05-16T04:32:15.477Z,0.60
2019-05-16T04:34:46.989Z,0.70
2019-05-16T04:37:16.997Z,0.93
2019-05-16T04:39:46.988Z,1.37
2019-05-16T04:42:16.991Z,0.57
2019-05-16T04:44:47.008Z,0.97
2019-05-16T04:47:17.067Z,1.03
2019-05-16T04:49:51.969Z,0.77
2019-05-16T04:52:25.891Z,0.63
2019-05-16T04:54:55.921Z,0.70
2019-05-16T04:57:25.896Z,0.60
2019-05-16T04:59:55.904Z,3.30
2019-05-16T05:02:25.914Z,2.00
2019-05-16T05:04:56.358Z,0.60
2019-05-16T05:07:30.993Z,3.53
2019-05-16T05:10:00.525Z,0.77
2019-05-16T05:12:31.743Z,1.40
2019-05-16T05:15:01.883Z,0.73
2019-05-16T05:17:31.893Z,1.60
2019-05-16T05:20:01.965Z,0.80
2019-05-16T05:22:32.146Z,0.90
2019-05-16T05:25:02.209Z,1.80
2019-05-16T05:27:33.289Z,1.67
2019-05-16T05:30:03.554Z,0.93
2019-05-16T05:32:33.616Z,0.73
2019-05-16T05:35:05.351Z,1.00
2019-05-16T05:37:35.315Z,0.93
2019-05-16T05:40:10.748Z,0.77
2019-05-16T05:42:41.465Z,4.33
2019-05-16T05:45:11.702Z,1.03
2019-05-16T05:47:41.785Z,0.97
2019-05-16T05:50:12.434Z,1.03
2019-05-16T05:52:42.426Z,0.97
2019-05-16T05:55:12.980Z,0.87
2019-05-16T05:57:43.010Z,1.13
2019-05-16T06:00:13.534Z,1.30
2019-05-16T06:02:43.539Z,0.93
2019-05-16T06:05:13.764Z,1.00
2019-05-16T06:07:43.778Z,1.00
2019-05-16T06:10:14.104Z,1.20
2019-05-16T06:12:44.188Z,0.93
2019-05-16T06:15:14.608Z,1.43
2019-05-16T06:17:44.636Z,1.00
2019-05-16T06:20:15.078Z,1.40
2019-05-16T06:22:45.127Z,2.23
2019-05-16T06:25:15.379Z,0.90
2019-05-16T06:27:45.929Z,1.43
2019-05-16T06:30:16.276Z,0.90
2019-05-16T06:32:46.257Z,1.00
2019-05-16T06:35:17.482Z,1.10
2019-05-16T06:37:51.197Z,1.10
2019-05-16T06:40:21.102Z,1.03
2019-05-16T06:42:53.508Z,2.50
2019-05-16T06:45:23.645Z,1.13
2019-05-16T06:47:53.714Z,1.37
2019-05-16T06:50:23.751Z,1.20
2019-05-16T06:52:53.815Z,1.13
2019-05-16T06:55:23.824Z,1.33
2019-05-16T06:57:57.263Z,1.20
2019-05-16T07:00:29.895Z,1.53
2019-05-16T07:03:00.405Z,1.00
2019-05-16T07:05:30.506Z,1.43
2019-05-16T07:08:00.528Z,1.27
2019-05-16T07:10:30.735Z,1.40
2019-05-16T07:13:00.895Z,1.40
2019-05-16T07:15:32.176Z,1.33
2019-05-16T07:18:02.168Z,1.50
2019-05-16T07:20:32.494Z,1.33
2019-05-16T07:23:04.256Z,1.57
2019-05-16T07:25:34.345Z,1.40
2019-05-16T07:28:07.185Z,1.50
2019-05-16T07:30:37.233Z,1.50
2019-05-16T07:33:09.688Z,1.23
2019-05-16T07:35:40.124Z,1.57
2019-05-16T07:38:10.733Z,1.20
2019-05-16T07:40:40.903Z,1.70
2019-05-16T07:43:10.980Z,1.70
2019-05-16T07:45:40.977Z,1.80
2019-05-16T07:48:11.134Z,2.10
2019-05-16T07:50:41.205Z,1.80
2019-05-16T07:53:11.279Z,1.83
2019-05-16T07:55:41.280Z,1.93
2019-05-16T07:58:13.307Z,1.87
2019-05-16T08:00:52.461Z,1.70
2019-05-16T08:03:19.929Z,2.00
2019-05-16T08:05:51.489Z,2.10
2019-05-16T08:08:24.242Z,1.90
2019-05-16T08:10:53.677Z,2.20
2019-05-16T08:13:23.688Z,1.80
2019-05-16T08:15:53.778Z,1.83
2019-05-16T08:18:23.801Z,2.27
2019-05-16T08:20:53.800Z,2.40
2019-05-16T08:23:24.170Z,1.87
2019-05-16T08:25:54.235Z,4.40
2019-05-16T08:28:25.290Z,1.93
2019-05-16T08:30:55.290Z,2.23
2019-05-16T08:33:28.082Z,2.17
2019-05-16T08:36:04.738Z,2.53
2019-05-16T08:38:30.896Z,2.73
2019-05-16T08:41:11.554Z,1.77
2019-05-16T08:43:33.227Z,1.90
2019-05-16T08:46:03.310Z,1.97
2019-05-16T08:48:33.332Z,2.10
2019-05-16T08:51:03.454Z,1.93
2019-05-16T08:53:33.489Z,1.67
2019-05-16T08:56:03.921Z,1.90
2019-05-16T08:58:34.047Z,2.07
2019-05-16T09:01:04.417Z,1.87
2019-05-16T09:03:35.497Z,2.27
2019-05-16T09:06:05.566Z,2.03
2019-05-16T09:08:36.053Z,1.80
2019-05-16T09:11:27.061Z,4.20
2019-05-16T09:13:39.636Z,2.27
2019-05-16T09:16:09.766Z,2.13
2019-05-16T09:18:44.823Z,2.00
2019-05-16T09:21:11.932Z,2.27
2019-05-16T09:23:42.031Z,2.33
2019-05-16T09:26:19.516Z,2.20
2019-05-16T09:28:43.870Z,2.77
2019-05-16T09:31:13.887Z,2.30
2019-05-16T09:33:43.974Z,2.47
2019-05-16T09:36:17.210Z,1.80
2019-05-16T09:38:48.584Z,1.70
2019-05-16T09:41:17.535Z,1.80
2019-05-16T09:43:48.907Z,2.07
2019-05-16T09:46:19.152Z,1.87
2019-05-16T09:48:49.382Z,2.27
2019-05-16T09:51:21.370Z,2.03
2019-05-16T09:53:51.108Z,1.93
2019-05-16T09:56:21.286Z,1.80
2019-05-16T09:58:52.334Z,2.43
2019-05-16T10:01:22.439Z,2.40
2019-05-16T10:03:52.586Z,2.20
2019-05-16T10:06:22.746Z,2.27
2019-05-16T10:08:52.868Z,2.20
2019-05-16T10:11:23.001Z,4.17
2019-05-16T10:13:53.010Z,2.50
2019-05-16T10:16:23.000Z,2.00
2019-05-16T10:18:53.039Z,2.53
2019-05-16T10:21:23.148Z,2.27
2019-05-16T10:23:53.212Z,2.67
2019-05-16T10:26:23.379Z,2.67
2019-05-16T10:28:53.433Z,2.17
2019-05-16T10:31:37.724Z,2.67
2019-05-16T10:33:57.701Z,2.13
2019-05-16T10:36:28.154Z,2.73
2019-05-16T10:38:59.108Z,3.60
2019-05-16T10:41:29.492Z,2.70
2019-05-16T10:43:59.477Z,2.40
2019-05-16T10:46:29.559Z,3.37
2019-05-16T10:48:59.621Z,2.60
2019-05-16T10:51:30.741Z,2.90
2019-05-16T10:54:09.753Z,3.03
2019-05-16T10:56:33.759Z,2.80
2019-05-16T10:59:37.817Z,2.27
2019-05-16T11:01:36.695Z,3.03
2019-05-16T11:04:07.446Z,2.40
2019-05-16T11:06:37.771Z,3.00
2019-05-16T11:09:09.939Z,2.57
2019-05-16T11:11:40.810Z,2.77
2019-05-16T11:14:10.803Z,3.00
2019-05-16T11:16:40.843Z,2.83
2019-05-16T11:19:17.931Z,2.97
2019-05-16T11:21:42.689Z,3.47
2019-05-16T11:24:13.558Z,2.93
2019-05-16T11:26:43.957Z,2.90
2019-05-16T11:29:16.358Z,2.47
2019-05-16T11:31:46.880Z,3.50
2019-05-16T11:34:17.440Z,3.03
2019-05-16T11:36:48.015Z,2.87
2019-05-16T11:39:19.080Z,2.53
2019-05-16T11:41:49.090Z,2.40
2019-05-16T11:44:19.199Z,2.80
2019-05-16T11:46:49.412Z,2.77
2019-05-16T11:49:20.368Z,2.70
2019-05-16T11:51:50.427Z,2.80
2019-05-16T11:54:20.544Z,2.87
2019-05-16T11:56:50.625Z,3.10
2019-05-16T11:59:20.633Z,3.37
2019-05-16T12:01:50.604Z,3.40
2019-05-16T12:04:20.622Z,3.07
2019-05-16T12:06:50.624Z,3.07
2019-05-16T12:09:20.648Z,9.10
2019-05-16T12:11:59.607Z,2.20
2019-05-16T12:14:22.432Z,2.93
2019-05-16T12:16:52.421Z,2.77
2019-05-16T12:19:22.464Z,2.50
2019-05-16T12:21:52.560Z,2.73
2019-05-16T12:24:33.023Z,2.90
2019-05-16T12:26:56.911Z,3.03
2019-05-16T12:29:28.135Z,3.50
2019-05-16T12:32:02.721Z,3.27
2019-05-16T12:34:30.708Z,2.90
2019-05-16T12:37:00.734Z,3.57
2019-05-16T12:39:31.014Z,3.13
2019-05-16T12:42:01.141Z,3.30
2019-05-16T12:44:32.880Z,3.83
2019-05-16T12:47:02.977Z,3.70
2019-05-16T12:49:32.961Z,3.70
2019-05-16T12:52:06.586Z,4.30
2019-05-16T12:54:37.675Z,4.40
2019-05-16T12:57:07.736Z,4.37
2019-05-16T12:59:41.906Z,4.53
2019-05-16T13:02:09.457Z,4.47
2019-05-16T13:04:39.479Z,3.90
2019-05-16T13:07:09.894Z,5.07
2019-05-16T13:09:40.049Z,4.80
2019-05-16T13:12:10.135Z,4.30
2019-05-16T13:14:40.555Z,4.97
2019-05-16T13:17:10.619Z,4.67
2019-05-16T13:19:44.216Z,5.20
2019-05-16T13:22:12.577Z,5.87
2019-05-16T13:24:42.690Z,5.30
2019-05-16T13:27:12.686Z,5.43
2019-05-16T13:29:42.698Z,5.83
2019-05-16T13:32:13.173Z,5.40
2019-05-16T13:34:43.185Z,5.07
2019-05-16T13:37:13.269Z,5.47
2019-05-16T13:39:43.301Z,5.80
2019-05-16T13:42:13.557Z,5.67
2019-05-16T13:44:47.121Z,5.37
2019-05-16T13:47:17.770Z,5.70
2019-05-16T13:49:47.772Z,6.20
2019-05-16T13:52:17.932Z,7.40
2019-05-16T13:54:47.993Z,6.73
2019-05-16T13:57:18.010Z,6.20
2019-05-16T13:59:49.207Z,6.47
2019-05-16T14:02:22.137Z,6.50
2019-05-16T14:04:52.375Z,6.17
2019-05-16T14:07:22.372Z,5.80
2019-05-16T14:09:52.383Z,4.87
2019-05-16T14:12:23.465Z,4.93
2019-05-16T14:14:53.465Z,4.83
2019-05-16T14:17:23.488Z,5.30
2019-05-16T14:19:53.569Z,5.00
2019-05-16T14:22:23.568Z,4.40
2019-05-16T14:24:57.030Z,4.30
2019-05-16T14:27:27.114Z,3.93
2019-05-16T14:29:57.911Z,4.43
2019-05-16T14:32:29.765Z,4.07
2019-05-16T14:34:59.947Z,5.47
2019-05-16T14:37:29.945Z,4.43
2019-05-16T14:40:01.334Z,4.53
2019-05-16T14:42:32.066Z,3.90
2019-05-16T14:45:10.831Z,4.23
2019-05-16T14:47:34.008Z,3.63
2019-05-16T14:50:11.560Z,4.43
2019-05-16T14:52:36.711Z,3.90
2019-05-16T14:55:07.471Z,4.43
2019-05-16T14:57:37.663Z,4.37
2019-05-16T15:00:09.429Z,3.70
2019-05-16T15:02:39.519Z,4.47
2019-05-16T15:05:09.947Z,4.00
2019-05-16T15:07:40.039Z,4.87
2019-05-16T15:10:10.575Z,4.13
2019-05-16T15:12:40.733Z,4.37
2019-05-16T15:15:24.312Z,4.13
2019-05-16T15:17:47.326Z,4.37
2019-05-16T15:20:18.249Z,4.00
2019-05-16T15:22:48.579Z,4.43
2019-05-16T15:25:19.368Z,5.17
2019-05-16T15:27:49.387Z,4.40
2019-05-16T15:30:20.317Z,5.30
2019-05-16T15:32:50.489Z,4.70
2019-05-16T15:35:21.996Z,4.30
2019-05-16T15:37:52.309Z,5.07
2019-05-16T15:40:22.417Z,4.70
2019-05-16T15:42:52.497Z,4.93
2019-05-16T15:45:35.702Z,5.00
2019-05-16T15:47:59.883Z,5.17
2019-05-16T15:50:30.765Z,5.30
2019-05-16T15:53:01.952Z,5.43
2019-05-16T15:55:33.077Z,4.93
2019-05-16T15:58:03.326Z,4.40
2019-05-16T16:00:47.825Z,4.97
2019-05-16T16:03:19.103Z,5.43
2019-05-16T16:05:50.176Z,6.23
2019-05-16T16:08:23.288Z,6.03
2019-05-16T16:10:53.436Z,6.00
2019-05-16T16:13:23.524Z,4.97
2019-05-16T16:15:54.686Z,5.50
2019-05-16T16:18:27.032Z,6.23
2019-05-16T16:20:58.379Z,6.23
2019-05-16T16:23:28.392Z,6.13
2019-05-16T16:25:59.810Z,6.63
2019-05-16T16:28:30.169Z,5.97
2019-05-16T16:31:00.318Z,6.63
2019-05-16T16:33:30.426Z,6.10
2019-05-16T16:36:00.604Z,5.77
2019-05-16T16:38:30.769Z,5.90
2019-05-16T16:41:00.763Z,5.83
2019-05-16T16:43:30.933Z,6.37
2019-05-16T16:46:08.865Z,7.57
2019-05-16T16:48:32.880Z,7.07
2019-05-16T16:51:06.357Z,6.17
2019-05-16T16:53:37.848Z,6.60
2019-05-16T16:56:07.872Z,7.17
2019-05-16T16:58:40.735Z,6.77
2019-05-16T17:01:10.931Z,7.17
2019-05-16T17:03:41.004Z,7.83
2019-05-16T17:06:11.442Z,6.93
2019-05-16T17:08:41.567Z,7.00
2019-05-16T17:11:11.696Z,7.03
2019-05-16T17:13:42.778Z,6.13
2019-05-16T17:16:25.211Z,7.00
2019-05-16T17:18:44.593Z,6.70
2019-05-16T17:21:16.882Z,7.23
2019-05-16T17:23:46.600Z,7.60
2019-05-16T17:26:16.819Z,6.33
2019-05-16T17:28:47.353Z,7.47
2019-05-16T17:31:17.631Z,7.57
2019-05-16T17:33:47.725Z,9.03
2019-05-16T17:36:17.897Z,9.63
2019-05-16T17:38:47.988Z,9.33
2019-05-16T17:41:18.011Z,8.83
2019-05-16T17:43:48.070Z,10.00
2019-05-16T17:46:18.325Z,9.20
2019-05-16T17:48:48.494Z,10.03
2019-05-16T17:51:20.354Z,9.47
2019-05-16T17:53:50.439Z,9.57
2019-05-16T17:56:21.990Z,10.53
2019-05-16T17:58:52.279Z,9.53
2019-05-16T18:01:23.883Z,10.23
2019-05-16T18:03:54.109Z,9.57
2019-05-16T18:06:24.288Z,8.63
2019-05-16T18:08:54.359Z,9.13
2019-05-16T18:11:26.634Z,9.90
2019-05-16T18:13:57.028Z,9.37
2019-05-16T18:16:27.250Z,10.73
2019-05-16T18:18:57.613Z,10.23
2019-05-16T18:21:27.719Z,9.77
2019-05-16T18:23:57.745Z,10.33
2019-05-16T18:26:29.494Z,9.93
2019-05-16T18:28:59.581Z,10.67
2019-05-16T18:31:32.159Z,10.30
2019-05-16T18:34:02.503Z,9.60
2019-05-16T18:36:32.582Z,10.43
2019-05-16T18:39:06.421Z,11.70
2019-05-16T18:41:36.618Z,10.67
2019-05-16T18:44:06.953Z,10.13
2019-05-16T18:46:37.067Z,11.23
2019-05-16T18:49:07.357Z,10.73
2019-05-16T18:51:39.648Z,9.70
2019-05-16T18:54:09.842Z,12.33
2019-05-16T18:56:39.958Z,11.43
2019-05-16T18:59:10.108Z,11.37
2019-05-16T19:01:40.222Z,13.87
2019-05-16T19:04:13.269Z,11.53
2019-05-16T19:06:42.184Z,10.83
2019-05-16T19:09:12.409Z,10.80
2019-05-16T19:11:42.590Z,11.03
2019-05-16T19:14:12.764Z,11.20
2019-05-16T19:16:42.891Z,12.10
2019-05-16T19:19:12.973Z,11.10
2019-05-16T19:21:44.151Z,11.90
2019-05-16T19:24:16.416Z,11.90
2019-05-16T19:26:47.092Z,12.10
2019-05-16T19:29:17.533Z,12.20
2019-05-16T19:31:50.372Z,12.13
2019-05-16T19:34:19.481Z,10.43
2019-05-16T19:36:49.520Z,10.70
2019-05-16T19:39:19.606Z,12.47
2019-05-16T19:41:49.704Z,11.37
2019-05-16T19:44:19.771Z,11.10
2019-05-16T19:46:49.749Z,12.03
2019-05-16T19:49:19.783Z,12.33
2019-05-16T19:51:49.818Z,12.10
2019-05-16T19:54:20.039Z,11.53
2019-05-16T19:56:50.236Z,12.60
2019-05-16T19:59:20.320Z,12.40
2019-05-16T20:01:50.793Z,11.97
2019-05-16T20:04:20.905Z,11.63
2019-05-16T20:06:51.075Z,11.07
2019-05-16T20:09:21.171Z,12.60
2019-05-16T20:11:51.188Z,12.40
2019-05-16T20:14:24.360Z,11.93
2019-05-16T20:16:56.672Z,12.03
2019-05-16T20:19:26.949Z,12.40
2019-05-16T20:21:58.127Z,12.93
2019-05-16T20:24:28.314Z,12.47
2019-05-16T20:26:58.394Z,13.27
2019-05-16T20:29:31.543Z,13.83
2019-05-16T20:32:01.580Z,12.97
2019-05-16T20:34:31.604Z,14.57
2019-05-16T20:37:01.638Z,14.73
2019-05-16T20:39:33.187Z,14.63
2019-05-16T20:42:03.214Z,14.20
2019-05-16T20:44:33.242Z,15.43
2019-05-16T20:47:03.258Z,14.10
2019-05-16T20:49:33.452Z,14.40
2019-05-16T20:52:03.596Z,15.50
2019-05-16T20:54:33.875Z,14.50
2019-05-16T20:57:06.625Z,14.73
2019-05-16T20:59:35.962Z,14.23
2019-05-16T21:02:07.268Z,14.97
2019-05-16T21:04:37.594Z,19.13
2019-05-16T21:07:11.058Z,15.23
2019-05-16T21:09:39.572Z,15.20
2019-05-16T21:12:09.599Z,16.17
2019-05-16T21:14:39.623Z,15.53
2019-05-16T21:17:10.090Z,15.77
2019-05-16T21:19:40.161Z,16.63
2019-05-16T21:22:13.581Z,17.63
2019-05-16T21:24:43.617Z,18.43
2019-05-16T21:27:13.699Z,16.63
2019-05-16T21:29:47.152Z,14.77
2019-05-16T21:32:17.323Z,19.10
2019-05-16T21:34:47.367Z,17.30
2019-05-16T21:37:20.347Z,16.70
2019-05-16T21:39:51.815Z,20.40
2019-05-16T21:42:21.900Z,24.47
2019-05-16T21:44:52.099Z,20.83
2019-05-16T21:47:27.570Z,22.50
2019-05-16T21:49:57.105Z,23.57
2019-05-16T21:52:28.893Z,20.83
2019-05-16T21:54:59.033Z,22.83
2019-05-16T21:57:30.109Z,20.13
2019-05-16T22:00:03.111Z,20.10
2019-05-16T22:02:38.052Z,19.10
2019-05-16T22:05:08.699Z,23.00
2019-05-16T22:07:40.292Z,21.33
2019-05-16T22:10:11.141Z,21.33
2019-05-16T22:12:41.381Z,20.63
2019-05-16T22:15:11.825Z,21.73
2019-05-16T22:17:43.505Z,23.87
2019-05-16T22:20:16.679Z,23.23
2019-05-16T22:22:47.137Z,22.63
2019-05-16T22:25:17.346Z,21.50
2019-05-16T22:27:48.941Z,22.67
2019-05-16T22:30:19.710Z,23.43
2019-05-16T22:32:50.054Z,23.13
2019-05-16T22:35:21.472Z,23.80
2019-05-16T22:37:55.539Z,21.83
2019-05-16T22:40:27.123Z,24.30
2019-05-16T22:42:58.775Z,23.00
2019-05-16T22:45:29.025Z,27.27
2019-05-16T22:47:59.064Z,25.67
2019-05-16T22:50:29.072Z,23.10
2019-05-16T22:52:59.091Z,26.33
2019-05-16T22:55:29.238Z,24.27
2019-05-16T22:58:02.088Z,27.50
2019-05-16T23:00:33.593Z,24.57
2019-05-16T23:03:03.621Z,25.63
2019-05-16T23:05:33.723Z,22.80
2019-05-16T23:08:08.918Z,24.80
2019-05-16T23:10:36.781Z,29.07
2019-05-16T23:13:07.326Z,27.30
2019-05-16T23:15:37.625Z,25.47
2019-05-16T23:18:07.703Z,25.20
2019-05-16T23:20:37.729Z,28.60
2019-05-16T23:23:07.762Z,21.30
2019-05-16T23:25:37.790Z,26.33
2019-05-16T23:28:09.408Z,20.87
2019-05-16T23:30:39.418Z,22.20
2019-05-16T23:33:12.493Z,23.60
2019-05-16T23:35:43.640Z,23.10
2019-05-16T23:38:19.249Z,21.53
2019-05-16T23:40:46.905Z,28.03
2019-05-16T23:43:17.030Z,23.47
2019-05-16T23:45:47.060Z,27.80
2019-05-16T23:48:18.666Z,28.20
2019-05-16T23:50:48.767Z,27.83
2019-05-16T23:53:18.767Z,22.60
2019-05-16T23:55:48.796Z,25.87
2019-05-16T23:58:18.822Z,25.93
